createdAt,value
2022-09-07T00:04:27.696Z,97639.63
2022-09-07T00:09:29.118Z,97629.81
2022-09-07T00:14:30.576Z,97629.63
2022-09-07T00:19:31.867Z,97621.31
2022-09-07T00:24:33.171Z,97627.50
2022-09-07T00:29:34.484Z,97622.47
2022-09-07T00:34:35.757Z,97629.78
2022-09-07T00:39:37.611Z,97625.91
2022-09-07T00:44:39.126Z,97621.84
2022-09-07T00:49:40.476Z,97621.53
2022-09-07T00:54:41.867Z,97621.69
2022-09-07T00:59:43.230Z,97619.41
2022-09-07T01:04:44.532Z,97618.94
2022-09-07T01:09:47.250Z,97624.75
2022-09-07T01:14:48.567Z,97633.88
2022-09-07T01:19:49.872Z,97626.72
2022-09-07T01:24:51.257Z,97623.69
2022-09-07T01:29:52.596Z,97620.47
2022-09-07T01:34:53.962Z,97617.34
2022-09-07T01:39:55.322Z,97623.84
2022-09-07T01:44:56.703Z,97630.31
2022-09-07T01:49:57.986Z,97615.31
2022-09-07T01:54:59.575Z,97617.13
2022-09-07T02:00:00.859Z,97621.44
2022-09-07T02:05:02.172Z,97623.59
2022-09-07T02:10:03.736Z,97609.16
2022-09-07T02:15:05.204Z,97603.91
2022-09-07T02:20:06.604Z,97609.16
2022-09-07T02:25:07.967Z,97613.94
2022-09-07T02:30:09.246Z,97607.34
2022-09-07T02:35:10.591Z,97609.03
2022-09-07T02:40:11.924Z,97614.88
2022-09-07T02:45:13.295Z,97607.69
2022-09-07T02:50:14.667Z,97621.72
2022-09-07T02:55:15.976Z,97616.19
2022-09-07T03:00:19.148Z,97617.50
2022-09-07T03:05:20.512Z,97618.56
2022-09-07T03:10:21.823Z,97621.19
2022-09-07T03:15:23.299Z,97627.19
2022-09-07T03:20:24.835Z,97621.66
2022-09-07T03:25:26.145Z,97623.13
2022-09-07T03:30:27.508Z,97626.25
2022-09-07T03:35:28.888Z,97643.53
2022-09-07T03:40:30.246Z,97634.97
2022-09-07T03:45:31.571Z,97644.06
2022-09-07T03:50:32.945Z,97648.00
2022-09-07T03:55:34.235Z,97645.22
2022-09-07T04:00:36.095Z,97633.13
2022-09-07T04:05:37.559Z,97635.03
2022-09-07T04:10:39.367Z,97634.78
2022-09-07T04:15:40.679Z,97634.91
2022-09-07T04:20:41.959Z,97624.78
2022-09-07T04:25:43.246Z,97621.06
2022-09-07T04:30:44.644Z,97618.91
2022-09-07T04:35:46.020Z,97598.72
2022-09-07T04:40:47.349Z,97617.31
2022-09-07T04:45:48.865Z,97621.66
2022-09-07T04:50:50.267Z,97625.72
2022-09-07T04:55:51.554Z,97628.22
2022-09-07T05:00:52.862Z,97641.84
2022-09-07T05:05:54.202Z,97645.22
2022-09-07T05:10:55.527Z,97644.41
2022-09-07T05:15:56.867Z,97656.47
2022-09-07T05:20:58.179Z,97662.47
2022-09-07T05:25:59.452Z,97662.19
2022-09-07T05:36:17.402Z,97661.94
2022-09-07T05:41:18.994Z,97672.34
2022-09-07T05:46:20.513Z,97666.69
2022-09-07T05:51:21.875Z,97684.88
2022-09-07T05:56:23.358Z,97690.38
2022-09-07T06:01:24.869Z,97682.25
2022-09-07T06:06:26.214Z,97680.47
2022-09-07T06:11:27.784Z,97691.44
2022-09-07T06:16:29.226Z,97684.75
2022-09-07T06:21:30.535Z,97695.91
2022-09-07T06:26:31.936Z,97699.22
2022-09-07T06:31:33.515Z,97709.16
2022-09-07T06:36:35.072Z,97702.31
2022-09-07T06:47:05.119Z,97705.53
2022-09-07T06:52:06.859Z,97713.66
2022-09-07T06:57:11.177Z,97719.63
2022-09-07T07:02:14.769Z,97701.50
2022-09-07T07:07:16.159Z,97696.25
2022-09-07T07:17:17.738Z,97689.72
2022-09-07T07:22:42.961Z,97706.75
2022-09-07T07:27:40.648Z,97703.28
2022-09-07T07:32:42.107Z,97710.97
2022-09-07T07:37:43.354Z,97702.88
2022-09-07T07:42:44.702Z,97696.31
2022-09-07T07:47:46.042Z,97704.72
2022-09-07T07:52:50.780Z,97695.34
2022-09-07T07:58:08.563Z,97685.34
2022-09-07T08:03:09.841Z,97686.75
2022-09-07T08:08:11.624Z,97693.47
2022-09-07T08:13:12.896Z,97694.63
2022-09-07T08:18:14.168Z,97686.72
2022-09-07T08:23:15.630Z,97675.13
2022-09-07T08:28:16.896Z,97673.59
2022-09-07T08:33:18.137Z,97689.31
2022-09-07T08:38:21.135Z,97681.69
2022-09-07T08:43:22.471Z,97674.84
2022-09-07T08:48:23.809Z,97668.09
2022-09-07T08:53:25.629Z,97662.38
2022-09-07T08:58:48.252Z,97653.00
2022-09-07T09:09:09.495Z,97648.53
2022-09-07T09:14:10.862Z,97637.66
2022-09-07T09:19:13.200Z,97637.41
2022-09-07T09:24:14.557Z,97627.97
2022-09-07T09:29:15.821Z,97618.56
2022-09-07T09:34:17.752Z,97633.66
2022-09-07T09:39:19.001Z,97638.75
2022-09-07T09:44:20.240Z,97638.63
2022-09-07T09:49:36.816Z,97627.91
2022-09-07T09:54:38.067Z,97622.38
2022-09-07T10:05:00.550Z,97609.25
2022-09-07T10:10:01.763Z,97598.31
2022-09-07T10:15:03.363Z,97579.63
2022-09-07T10:20:08.875Z,97552.41
2022-09-07T10:25:13.810Z,97532.53
2022-09-07T10:30:15.046Z,97539.00
2022-09-07T10:35:16.919Z,97531.66
2022-09-07T10:40:18.334Z,97540.81
2022-09-07T10:45:19.630Z,97544.50
2022-09-07T10:50:22.514Z,97529.88
2022-09-07T10:55:29.509Z,97521.97
2022-09-07T11:00:31.185Z,97529.00
2022-09-07T11:05:36.102Z,97524.22
2022-09-07T11:10:39.521Z,97517.38
2022-09-07T11:15:40.795Z,97517.06
2022-09-07T11:20:59.521Z,97499.38
2022-09-07T11:26:02.775Z,97492.38
2022-09-07T11:31:07.598Z,97481.16
2022-09-07T11:41:54.580Z,97473.34
2022-09-07T11:47:08.926Z,97465.75
2022-09-07T11:52:10.307Z,97452.81
2022-09-07T11:57:34.391Z,97446.88
2022-09-07T12:02:57.732Z,97442.44
2022-09-07T12:07:56.958Z,97423.66
2022-09-07T12:12:58.264Z,97430.25
2022-09-07T12:18:00.780Z,97427.50
2022-09-07T12:23:05.258Z,97425.84
2022-09-07T12:28:12.982Z,97423.91
2022-09-07T12:33:14.251Z,97430.84
2022-09-07T12:38:15.502Z,97409.91
2022-09-07T12:43:22.868Z,97419.19
2022-09-07T12:54:10.050Z,97400.03
2022-09-07T12:59:19.482Z,97381.47
2022-09-07T13:04:22.968Z,97379.50
2022-09-07T13:09:24.332Z,97376.84
2022-09-07T13:14:25.690Z,97367.38
2022-09-07T13:19:27.227Z,97347.56
2022-09-07T13:24:46.083Z,97347.47
2022-09-07T13:29:47.884Z,97332.91
2022-09-07T13:34:49.188Z,97325.84
2022-09-07T13:39:52.566Z,97325.50
2022-09-07T13:44:54.147Z,97330.31
2022-09-07T13:49:56.196Z,97319.22
2022-09-07T13:54:58.605Z,97310.66
2022-09-07T14:11:44.013Z,97304.13
2022-09-07T14:16:45.661Z,97292.75
2022-09-07T14:21:47.150Z,97288.03
2022-09-07T14:26:49.092Z,97273.75
2022-09-07T14:31:50.728Z,97267.66
2022-09-07T14:36:51.976Z,97267.47
2022-09-07T14:41:53.513Z,97257.81
2022-09-07T14:46:57.495Z,97266.88
2022-09-07T14:52:00.748Z,97270.22
2022-09-07T14:57:02.587Z,97282.38
2022-09-07T15:02:03.905Z,97264.47
2022-09-07T15:07:05.163Z,97258.63
2022-09-07T15:12:06.399Z,97271.00
2022-09-07T15:22:29.524Z,97260.22
2022-09-07T15:27:30.875Z,97241.19
2022-09-07T15:32:32.169Z,97233.25
2022-09-07T15:43:08.515Z,97213.88
2022-09-07T15:48:15.230Z,97202.56
2022-09-07T15:58:37.682Z,97200.47
2022-09-07T16:03:39.000Z,97204.28
2022-09-07T16:08:40.527Z,97214.47
2022-09-07T16:19:27.627Z,97222.75
2022-09-07T16:24:28.987Z,97239.09
2022-09-07T16:29:30.223Z,97252.66
2022-09-07T16:34:31.503Z,97269.03
2022-09-07T16:39:32.806Z,97267.31
2022-09-07T16:44:35.195Z,97248.66
2022-09-07T16:49:36.465Z,97239.88
2022-09-07T16:54:37.737Z,97237.19
2022-09-07T16:59:38.963Z,97243.78
2022-09-07T17:04:40.176Z,97239.34
2022-09-07T17:10:01.932Z,97245.84
2022-09-07T17:15:03.211Z,97226.75
2022-09-07T17:20:04.467Z,97228.34
2022-09-07T17:25:05.802Z,97242.66
2022-09-07T17:30:07.044Z,97241.81
2022-09-07T17:35:08.352Z,97252.44
2022-09-07T17:40:09.754Z,97265.56
2022-09-07T17:45:11.639Z,97268.16
2022-09-07T17:50:13.078Z,97267.59
2022-09-07T17:55:14.343Z,97280.03
2022-09-07T18:00:15.637Z,97281.22
2022-09-07T18:05:16.901Z,97275.78
2022-09-07T18:10:18.467Z,97286.41
2022-09-07T18:15:22.122Z,97292.22
2022-09-07T18:20:24.405Z,97300.00
2022-09-07T18:25:25.762Z,97308.44
2022-09-07T18:30:27.020Z,97308.97
2022-09-07T18:35:28.277Z,97292.34
2022-09-07T18:40:29.542Z,97279.56
2022-09-07T18:45:30.763Z,97290.75
2022-09-07T18:50:32.747Z,97300.47
2022-09-07T18:55:34.011Z,97306.06
2022-09-07T19:00:35.272Z,97306.56
2022-09-07T19:05:52.839Z,97304.38
2022-09-07T19:10:54.499Z,97316.44
2022-09-07T19:15:55.793Z,97304.41
2022-09-07T19:20:57.140Z,97305.78
2022-09-07T19:25:58.388Z,97308.44
2022-09-07T19:30:59.736Z,97311.34
2022-09-07T19:36:01.001Z,97327.47
2022-09-07T19:41:02.323Z,97318.97
2022-09-07T19:46:10.529Z,97321.66
2022-09-07T19:51:18.614Z,97325.66
2022-09-07T19:56:29.035Z,97331.19
2022-09-07T20:01:39.787Z,97322.31
2022-09-07T20:06:54.096Z,97308.75
2022-09-07T20:11:55.657Z,97321.75
2022-09-07T20:17:04.532Z,97318.94
2022-09-07T20:22:05.823Z,97316.09
2022-09-07T20:27:07.039Z,97303.28
2022-09-07T20:32:08.351Z,97297.91
2022-09-07T20:37:09.655Z,97299.25
2022-09-07T20:42:10.917Z,97296.09
2022-09-07T20:47:12.641Z,97299.75
2022-09-07T20:52:15.785Z,97300.41
2022-09-07T20:57:21.000Z,97297.19
2022-09-07T21:02:22.435Z,97290.84
2022-09-07T21:07:25.732Z,97278.47
2022-09-07T21:12:27.011Z,97280.72
2022-09-07T21:17:28.234Z,97265.91
2022-09-07T21:22:29.496Z,97260.94
2022-09-07T21:44:10.266Z,97266.72
2022-09-07T21:49:11.638Z,97265.88
2022-09-07T21:54:13.342Z,97260.09
2022-09-07T21:59:15.094Z,97258.63
2022-09-07T22:04:16.549Z,97251.13
2022-09-07T22:09:17.811Z,97245.06
2022-09-07T22:14:19.191Z,97249.41
2022-09-07T22:19:20.433Z,97263.38
2022-09-07T22:24:21.731Z,97259.19
2022-09-07T22:29:22.954Z,97252.25
2022-09-07T22:34:24.232Z,97257.50
2022-09-07T22:39:25.499Z,97257.16
2022-09-07T22:44:27.560Z,97255.44
2022-09-07T22:49:28.995Z,97255.75
2022-09-07T22:54:30.220Z,97250.53
2022-09-07T22:59:31.881Z,97246.22
2022-09-07T23:04:33.192Z,97235.72
2022-09-07T23:09:34.496Z,97228.53
2022-09-07T23:14:36.026Z,97224.94
2022-09-07T23:19:37.279Z,97222.19
2022-09-07T23:24:41.551Z,97212.31
2022-09-07T23:29:42.877Z,97196.03
2022-09-07T23:34:44.114Z,97191.56
2022-09-07T23:39:45.381Z,97179.47
2022-09-07T23:44:48.492Z,97186.84
2022-09-07T23:49:49.733Z,97184.22
2022-09-07T23:54:51.011Z,97181.97
2022-09-07T23:59:52.254Z,97188.66
